Time;durP1;ratioP1;P1;durP2;ratioP2;P2;SDS_P1;SDS_P2;PMS_P1;PMS_P2;Temp;Humidity;BMP_temperature;BMP_pressure;BME280_temperature;BME280_humidity;BME280_pressure;Samples;Min_cycle;Max_cycle;Signal;HPM_P1;HPM_P2
2022/07/09 00:01:27;;;;;;;2.60;0.90;;;;;;;13.76;86.23;100907.70;105258;1277;110178;-79
2022/07/09 00:03:55;;;;;;;6.00;1.20;;;;;;;13.77;86.26;100906.23;105041;1277;140973;-79
2022/07/09 00:06:23;;;;;;;4.70;1.20;;;;;;;13.77;86.43;100908.55;105159;1277;109254;-80
2022/07/09 00:08:51;;;;;;;4.50;1.30;;;;;;;13.79;86.44;100912.42;105000;1277;141093;-80
2022/07/09 00:11:18;;;;;;;3.30;1.10;;;;;;;13.82;86.63;100911.77;105109;1277;95134;-79
2022/07/09 00:13:47;;;;;;;5.70;1.50;;;;;;;13.87;86.50;100916.80;105105;1277;110007;-78
2022/07/09 00:16:15;;;;;;;4.50;1.20;;;;;;;13.91;86.34;100915.96;104986;1276;139086;-78
2022/07/09 00:18:43;;;;;;;3.30;1.20;;;;;;;13.94;86.65;100919.26;105175;1276;108918;-79
2022/07/09 00:21:11;;;;;;;3.70;1.20;;;;;;;13.95;86.75;100918.16;105078;1277;140348;-79
2022/07/09 00:23:39;;;;;;;3.80;1.40;;;;;;;13.98;87.19;100915.73;105170;1277;95115;-79
2022/07/09 00:26:07;;;;;;;4.90;1.60;;;;;;;14.03;87.07;100909.48;105168;1277;109254;-78
2022/07/09 00:28:35;;;;;;;4.40;1.30;;;;;;;14.14;86.99;100913.27;104397;1276;139070;-78
2022/07/09 00:31:03;;;;;;;5.80;1.50;;;;;;;14.21;86.72;100916.05;104598;1277;109289;-79
2022/07/09 00:33:31;;;;;;;5.00;1.30;;;;;;;14.26;86.67;100914.30;104976;1277;139417;-79
2022/07/09 00:35:59;;;;;;;4.40;1.70;;;;;;;14.26;86.71;100912.70;105314;1277;95140;-80
2022/07/09 00:38:27;;;;;;;5.80;1.50;;;;;;;14.25;86.68;100907.00;105169;1277;110479;-80
2022/07/09 00:40:55;;;;;;;4.20;1.20;;;;;;;14.26;86.83;100908.74;105080;1277;140402;-80
2022/07/09 00:43:23;;;;;;;5.30;1.50;;;;;;;14.26;86.85;100909.11;105159;1277;108164;-80
2022/07/09 00:45:51;;;;;;;4.20;1.50;;;;;;;14.28;86.67;100908.54;105072;1277;140877;-80
2022/07/09 00:48:19;;;;;;;5.80;1.60;;;;;;;14.29;86.91;100906.50;105104;1276;95987;-80
2022/07/09 00:50:48;;;;;;;5.40;1.70;;;;;;;14.33;86.88;100905.28;104990;1277;141597;-79
2022/07/09 00:53:18;;;;;;;4.10;1.40;;;;;;;14.33;86.68;100905.64;105219;1277;97435;-79
2022/07/09 00:55:47;;;;;;;5.40;1.60;;;;;;;14.32;86.81;100905.49;105190;1276;109165;-79
2022/07/09 00:58:17;;;;;;;5.60;1.90;;;;;;;14.29;86.78;100903.83;104782;1277;140209;-78
2022/07/09 01:00:45;;;;;;;5.50;1.60;;;;;;;14.27;86.94;100904.45;105079;1277;95160;-78
2022/07/09 01:03:13;;;;;;;5.20;1.40;;;;;;;14.27;87.09;100902.11;104963;1277;139773;-79
2022/07/09 01:05:41;;;;;;;5.80;1.80;;;;;;;14.27;87.00;100903.36;105275;1277;99576;-78
2022/07/09 01:08:09;;;;;;;4.40;1.70;;;;;;;14.29;86.99;100901.52;105159;1277;109298;-79
2022/07/09 01:10:38;;;;;;;4.50;1.80;;;;;;;14.32;87.15;100899.61;105414;1277;139498;-79
2022/07/09 01:13:06;;;;;;;8.10;1.90;;;;;;;14.38;87.09;100899.61;105651;1277;95211;-79
2022/07/09 01:15:34;;;;;;;6.10;1.90;;;;;;;14.49;86.75;100896.36;105669;1277;139617;-79
2022/07/09 01:18:03;;;;;;;6.60;2.10;;;;;;;14.59;86.21;100894.59;105812;1277;99783;-79
2022/07/09 01:20:31;;;;;;;5.10;1.80;;;;;;;14.68;86.30;100894.48;105737;1277;108628;-79
2022/07/09 01:22:59;;;;;;;6.20;1.80;;;;;;;14.74;85.50;100892.33;105995;1277;140103;-80
2022/07/09 01:25:38;;;;;;;7.70;1.90;;;;;;;14.77;85.21;100890.04;106231;1277;95228;-81
2022/07/09 01:28:09;;;;;;;6.30;2.60;;;;;;;14.78;84.92;100885.52;105622;1277;140226;-79
2022/07/09 01:30:39;;;;;;;5.70;1.70;;;;;;;14.79;84.36;100884.96;105850;1277;98941;-79
2022/07/09 01:33:08;;;;;;;5.30;1.60;;;;;;;14.80;83.97;100888.15;105834;1277;140191;-79
2022/07/09 01:35:36;;;;;;;6.20;1.70;;;;;;;14.80;83.80;100890.48;105577;1276;95201;-80
2022/07/09 01:38:04;;;;;;;6.20;1.60;;;;;;;14.81;83.32;100887.40;105302;1276;95144;-80
2022/07/09 01:40:32;;;;;;;8.50;2.10;;;;;;;14.82;83.06;100884.13;105227;1277;138772;-80
2022/07/09 01:42:59;;;;;;;5.30;1.90;;;;;;;14.78;82.66;100882.16;105291;1276;99268;-79
2022/07/09 01:45:27;;;;;;;6.30;2.00;;;;;;;14.75;82.34;100884.58;105159;1277;139468;-79
2022/07/09 01:47:55;;;;;;;5.50;1.90;;;;;;;14.72;82.04;100881.48;105326;1276;95210;-80
2022/07/09 01:50:23;;;;;;;4.50;1.60;;;;;;;14.71;82.04;100878.11;105207;1276;95232;-81
2022/07/09 01:52:51;;;;;;;9.00;1.60;;;;;;;14.72;82.09;100880.95;105173;1277;140610;-81
2022/07/09 01:55:19;;;;;;;6.20;1.80;;;;;;;14.73;82.31;100879.46;105275;1277;98167;-80
2022/07/09 01:57:47;;;;;;;5.80;1.60;;;;;;;14.72;81.95;100881.83;105041;1277;139143;-80
2022/07/09 02:00:16;;;;;;;7.60;2.10;;;;;;;14.73;82.19;100882.70;105193;1277;95287;-80
2022/07/09 02:02:43;;;;;;;8.10;2.00;;;;;;;14.74;82.26;100885.90;105261;1276;95215;-80
2022/07/09 02:05:12;;;;;;;5.80;2.00;;;;;;;14.73;82.63;100885.73;105457;1277;110314;-81
2022/07/09 02:07:40;;;;;;;5.90;1.80;;;;;;;14.70;82.78;100886.55;105655;1277;100106;-81
2022/07/09 02:10:08;;;;;;;4.80;1.80;;;;;;;14.72;82.74;100884.34;104974;1277;139336;-81
2022/07/09 02:12:36;;;;;;;7.10;2.20;;;;;;;14.72;82.83;100883.44;105141;1277;95243;-81
2022/07/09 02:15:06;;;;;;;6.80;2.20;;;;;;;14.70;82.78;100883.88;105014;1277;140841;-77
2022/07/09 02:17:34;;;;;;;7.00;2.00;;;;;;;14.68;82.47;100879.30;105549;1277;110163;-80
2022/07/09 02:20:03;;;;;;;6.00;2.00;;;;;;;14.65;82.61;100876.54;105388;1277;99687;-80
2022/07/09 02:22:31;;;;;;;7.80;2.10;;;;;;;14.60;82.48;100873.48;105154;1277;139876;-78
2022/07/09 02:24:59;;;;;;;7.60;2.10;;;;;;;14.57;82.06;100872.15;105376;1277;95248;-80
2022/07/09 02:27:27;;;;;;;5.90;2.10;;;;;;;14.53;81.90;100867.98;105140;1277;140438;-80
2022/07/09 02:29:55;;;;;;;5.80;2.20;;;;;;;14.51;82.15;100865.55;105369;1277;110124;-79
2022/07/09 02:32:22;;;;;;;7.30;2.50;;;;;;;14.49;81.94;100865.66;105405;1277;99780;-80
2022/07/09 02:34:50;;;;;;;5.80;2.20;;;;;;;14.48;81.82;100864.05;105263;1277;141312;-80
2022/07/09 02:37:18;;;;;;;7.10;2.30;;;;;;;14.45;81.91;100873.27;105367;1277;95242;-79
2022/07/09 02:39:46;;;;;;;5.20;2.10;;;;;;;14.43;81.72;100872.44;105176;1277;139392;-80
2022/07/09 02:42:14;;;;;;;7.30;2.10;;;;;;;14.38;81.76;100875.09;105305;1277;110839;-80
2022/07/09 02:44:43;;;;;;;8.80;2.80;;;;;;;14.34;81.63;100875.61;105365;1277;98343;-79
2022/07/09 02:47:11;;;;;;;10.20;2.20;;;;;;;14.32;81.40;100876.39;105337;1276;109505;-79
2022/07/09 02:49:39;;;;;;;4.90;1.90;;;;;;;14.31;81.87;100871.98;105314;1277;95836;-79
2022/07/09 02:52:07;;;;;;;6.90;2.10;;;;;;;14.30;81.80;100873.42;105251;1277;140473;-79
2022/07/09 02:54:34;;;;;;;5.20;1.90;;;;;;;14.30;81.30;100871.66;105357;1277;110134;-79
2022/07/09 02:57:02;;;;;;;7.60;2.10;;;;;;;14.27;81.25;100875.14;105310;1276;140320;-79
2022/07/09 02:59:30;;;;;;;7.80;2.30;;;;;;;14.26;81.44;100872.51;105345;1277;109299;-78
2022/07/09 03:01:58;;;;;;;8.30;2.40;;;;;;;14.26;81.34;100872.69;105348;1277;95106;-79
2022/07/09 03:04:26;;;;;;;6.80;2.20;;;;;;;14.25;81.19;100869.88;105319;1277;138702;-79
2022/07/09 03:06:54;;;;;;;8.60;2.40;;;;;;;14.26;81.37;100865.55;105534;1276;108674;-79
2022/07/09 03:09:22;;;;;;;7.60;2.20;;;;;;;14.25;81.06;100859.69;105336;1277;152868;-79
2022/07/09 03:11:50;;;;;;;8.70;2.40;;;;;;;14.24;80.92;100864.53;105344;1277;107055;-79
2022/07/09 03:14:17;;;;;;;8.60;2.30;;;;;;;14.22;80.73;100863.33;105253;1276;95230;-79
2022/07/09 03:16:45;;;;;;;7.10;2.00;;;;;;;14.20;80.91;100856.98;105320;1277;141938;-79
2022/07/09 03:19:14;;;;;;;6.70;2.10;;;;;;;14.18;80.91;100854.36;105525;1276;110322;-78
2022/07/09 03:21:41;;;;;;;5.80;2.10;;;;;;;14.21;81.16;100852.85;105193;1277;140099;-79
2022/07/09 03:24:09;;;;;;;6.60;2.20;;;;;;;14.20;80.85;100854.64;105268;1277;109701;-78
2022/07/09 03:26:37;;;;;;;5.40;2.20;;;;;;;14.19;81.11;100856.46;105296;1277;95249;-79
2022/07/09 03:29:05;;;;;;;7.30;2.40;;;;;;;14.16;81.05;100852.98;105175;1277;139474;-78
2022/07/09 03:31:33;;;;;;;8.60;2.30;;;;;;;14.13;80.68;100849.36;105308;1277;109123;-79
2022/07/09 03:34:02;;;;;;;7.30;2.50;;;;;;;14.05;80.76;100855.86;105156;1277;139990;-79
2022/07/09 03:36:30;;;;;;;6.80;2.10;;;;;;;14.00;80.83;100857.98;104640;1277;108346;-79
2022/07/09 03:38:58;;;;;;;7.60;2.30;;;;;;;13.98;80.93;100861.64;104606;1277;141405;-79
2022/07/09 03:41:26;;;;;;;5.80;2.40;;;;;;;13.95;80.98;100860.86;104688;1277;95138;-79
2022/07/09 03:43:54;;;;;;;8.50;2.40;;;;;;;13.93;80.81;100862.52;104669;1277;110158;-79
2022/07/09 03:46:23;;;;;;;7.00;2.10;;;;;;;13.93;80.76;100863.41;104460;1277;139387;-79
2022/07/09 03:48:51;;;;;;;8.20;2.70;;;;;;;13.96;80.97;100860.98;104582;1277;106657;-78
2022/07/09 03:51:19;;;;;;;4.90;2.10;;;;;;;14.01;80.84;100858.86;104599;1277;139484;-79
2022/07/09 03:53:47;;;;;;;8.50;2.20;;;;;;;14.05;80.89;100854.97;105250;1277;95210;-79
2022/07/09 03:56:15;;;;;;;5.40;2.30;;;;;;;14.07;80.36;100855.27;105320;1277;110231;-81
2022/07/09 03:58:43;;;;;;;7.60;2.50;;;;;;;14.05;80.42;100856.41;105838;1277;139127;-78
2022/07/09 04:01:11;;;;;;;7.30;2.70;;;;;;;14.07;80.58;100852.25;105916;1277;108513;-78
2022/07/09 04:03:39;;;;;;;9.10;2.50;;;;;;;14.09;80.82;100855.22;105902;1277;139112;-80
2022/07/09 04:06:09;;;;;;;8.30;2.60;;;;;;;14.16;80.91;100853.89;106187;1277;94951;-80
2022/07/09 04:08:37;;;;;;;8.20;2.40;;;;;;;14.21;80.62;100852.30;105590;1277;107428;-78
2022/07/09 04:11:05;;;;;;;7.60;3.00;;;;;;;14.27;80.26;100849.05;105300;1276;140674;-79
2022/07/09 04:13:36;;;;;;;7.10;2.60;;;;;;;14.27;80.09;100846.91;105348;1277;107827;-79
2022/07/09 04:16:05;;;;;;;7.70;2.50;;;;;;;14.28;80.14;100849.02;105264;1276;139218;-79
2022/07/09 04:18:34;;;;;;;11.60;3.10;;;;;;;14.29;79.76;100849.90;105462;1276;95235;-78
2022/07/09 04:21:03;;;;;;;7.30;2.80;;;;;;;14.27;80.12;100848.70;105461;1277;139777;-79
2022/07/09 04:23:30;;;;;;;6.60;2.60;;;;;;;14.27;80.03;100848.70;105412;1277;98275;-79
2022/07/09 04:25:58;;;;;;;6.20;2.50;;;;;;;14.30;80.11;100849.85;105381;1277;107705;-79
2022/07/09 04:28:28;;;;;;;6.50;2.30;;;;;;;14.30;80.10;100844.66;105247;1277;138968;-82
2022/07/09 04:30:56;;;;;;;8.10;2.80;;;;;;;14.34;80.17;100840.96;105767;1276;94264;-79
2022/07/09 04:33:24;;;;;;;6.30;2.00;;;;;;;14.38;79.93;100833.33;105371;1277;141839;-78
2022/07/09 04:35:53;;;;;;;7.70;2.30;;;;;;;14.43;79.69;100833.15;104639;1277;98058;-77
2022/07/09 04:38:21;;;;;;;9.20;2.60;;;;;;;14.50;79.67;100833.24;104610;1276;109680;-77
2022/07/09 04:40:49;;;;;;;6.70;2.30;;;;;;;14.56;79.62;100831.62;104435;1277;139277;-77
2022/07/09 04:43:17;;;;;;;6.30;2.60;;;;;;;14.61;79.59;100830.37;104685;1277;95319;-77
2022/07/09 04:45:45;;;;;;;7.20;2.60;;;;;;;14.65;79.56;100825.61;104513;1277;140629;-78
2022/07/09 04:48:13;;;;;;;8.40;2.90;;;;;;;14.67;79.33;100836.42;104547;1277;99917;-77
2022/07/09 04:50:41;;;;;;;7.00;2.50;;;;;;;14.72;79.39;100842.14;104493;1277;109363;-77
2022/07/09 04:53:09;;;;;;;9.00;2.80;;;;;;;14.80;79.60;100840.61;104433;1276;140152;-75
2022/07/09 04:55:36;;;;;;;6.30;2.60;;;;;;;14.83;79.53;100835.29;104571;1277;95278;-78
2022/07/09 04:58:04;;;;;;;6.90;2.60;;;;;;;14.86;79.54;100840.92;104485;1277;141006;-78
2022/07/09 05:00:33;;;;;;;7.80;2.70;;;;;;;14.89;79.42;100838.67;104589;1277;100455;-79
2022/07/09 05:03:01;;;;;;;8.30;2.70;;;;;;;14.97;79.58;100836.23;104931;1277;182963;-79
2022/07/09 05:05:29;;;;;;;7.50;2.50;;;;;;;15.04;79.38;100835.96;105116;1277;95218;-79
2022/07/09 05:07:56;;;;;;;7.10;2.70;;;;;;;15.10;79.37;100831.79;105251;1277;95122;-79
2022/07/09 05:10:25;;;;;;;9.10;2.50;;;;;;;15.17;79.15;100834.57;104952;1276;140167;-77
2022/07/09 05:12:52;;;;;;;8.30;2.30;;;;;;;15.28;78.74;100837.37;104595;1277;100924;-79
2022/07/09 05:15:20;;;;;;;5.90;2.20;;;;;;;15.35;78.54;100832.98;105016;1277;141464;-79
2022/07/09 05:17:48;;;;;;;6.60;2.50;;;;;;;15.40;78.26;100835.84;104593;1276;95096;-80
2022/07/09 05:20:16;;;;;;;6.90;2.30;;;;;;;15.47;78.32;100833.80;105153;1277;95837;-79
2022/07/09 05:22:44;;;;;;;6.20;2.30;;;;;;;15.54;78.10;100833.32;105059;1277;139477;-78
2022/07/09 05:25:12;;;;;;;6.20;2.40;;;;;;;15.60;77.96;100830.40;104532;1277;100317;-77
2022/07/09 05:27:42;;;;;;;6.90;2.60;;;;;;;15.69;77.97;100827.35;104473;1277;140902;-77
2022/07/09 05:30:14;;;;;;;8.00;2.30;;;;;;;15.80;77.98;100828.52;105080;1277;95345;-78
2022/07/09 05:32:46;;;;;;;5.60;2.60;;;;;;;15.91;77.46;100827.75;104484;1276;141621;-77
2022/07/09 05:35:14;;;;;;;7.20;2.20;;;;;;;15.91;77.27;100830.42;105153;1277;110563;-79
2022/07/09 05:37:43;;;;;;;4.80;2.10;;;;;;;15.93;77.13;100831.41;104714;1277;97019;-78
2022/07/09 05:40:12;;;;;;;4.90;2.20;;;;;;;15.93;77.11;100826.04;104521;1277;140936;-78
2022/07/09 05:42:39;;;;;;;6.00;3.10;;;;;;;16.05;77.10;100822.47;105067;1277;95135;-79
2022/07/09 05:45:08;;;;;;;7.20;2.90;;;;;;;16.16;77.00;100816.48;104785;1276;140919;-78
2022/07/09 05:47:36;;;;;;;6.70;3.80;;;;;;;16.20;76.23;100820.25;104721;1277;110475;-78
2022/07/09 05:50:04;;;;;;;7.90;3.50;;;;;;;16.15;76.47;100826.54;104678;1277;100490;-80
2022/07/09 05:52:32;;;;;;;6.00;3.30;;;;;;;16.11;76.42;100823.13;105276;1277;139341;-78
2022/07/09 05:55:03;;;;;;;6.40;2.80;;;;;;;16.12;77.13;100821.84;104637;1277;95227;-74
2022/07/09 05:57:35;;;;;;;6.60;2.70;;;;;;;16.20;77.15;100823.11;104774;1276;140278;-77
2022/07/09 06:00:04;;;;;;;6.30;2.20;;;;;;;16.29;77.03;100821.82;104578;1277;110178;-78
2022/07/09 06:02:33;;;;;;;5.10;2.30;;;;;;;16.34;76.54;100821.97;104675;1277;99802;-79
2022/07/09 06:05:01;;;;;;;7.60;2.70;;;;;;;16.32;76.11;100823.48;105272;1277;138262;-78
2022/07/09 06:07:28;;;;;;;6.90;3.10;;;;;;;16.34;76.04;100822.16;105226;1276;96630;-79
2022/07/09 06:09:57;;;;;;;6.10;3.20;;;;;;;16.41;75.71;100817.00;105297;1277;140331;-79
2022/07/09 06:12:25;;;;;;;7.50;3.70;;;;;;;16.46;76.01;100816.95;105320;1276;109391;-77
2022/07/09 06:14:53;;;;;;;7.10;3.70;;;;;;;16.49;75.46;100815.58;104541;1276;140131;-80
2022/07/09 06:17:21;;;;;;;6.20;3.20;;;;;;;16.46;75.05;100812.10;105323;1276;109535;-80
2022/07/09 06:19:48;;;;;;;5.20;2.60;;;;;;;16.49;75.29;100810.73;105311;1277;95268;-79
2022/07/09 06:22:16;;;;;;;4.80;2.50;;;;;;;16.53;75.13;100808.04;105161;1277;139077;-78
2022/07/09 06:24:44;;;;;;;6.90;3.20;;;;;;;16.58;75.17;100807.27;104591;1276;109776;-74
2022/07/09 06:27:12;;;;;;;6.90;3.10;;;;;;;16.61;75.14;100804.83;104429;1277;140105;-78
2022/07/09 06:29:40;;;;;;;6.80;3.10;;;;;;;16.60;75.53;100804.87;104542;1277;107734;-78
2022/07/09 06:32:08;;;;;;;6.20;2.70;;;;;;;16.55;75.46;100804.89;104703;1277;95695;-79
2022/07/09 06:34:36;;;;;;;4.50;2.50;;;;;;;16.50;75.38;100804.58;104657;1277;139474;-78
2022/07/09 06:37:05;;;;;;;5.40;2.10;;;;;;;16.56;75.72;100805.24;105445;1277;110099;-78
2022/07/09 06:39:45;;;;;;;5.80;2.00;;;;;;;16.55;74.81;100805.09;105036;1277;140290;-78
2022/07/09 06:42:16;;;;;;;6.50;2.60;;;;;;;16.48;74.68;100803.41;104657;1277;109420;-78
2022/07/09 06:44:46;;;;;;;4.30;1.80;;;;;;;16.49;74.89;100800.14;104601;1277;140773;-79
2022/07/09 06:47:14;;;;;;;5.00;1.90;;;;;;;16.51;74.70;100797.58;105330;1277;95648;-79
2022/07/09 06:49:42;;;;;;;5.10;2.00;;;;;;;16.52;74.54;100796.45;105410;1276;109880;-81
2022/07/09 06:52:10;;;;;;;4.40;1.90;;;;;;;16.55;74.23;100794.33;105248;1277;139985;-80
2022/07/09 06:54:37;;;;;;;6.90;1.90;;;;;;;16.59;74.75;100792.53;105208;1277;108943;-79
2022/07/09 06:57:06;;;;;;;3.80;1.70;;;;;;;16.68;74.56;100788.73;105233;1277;140981;-81
2022/07/09 06:59:34;;;;;;;4.00;1.50;;;;;;;16.75;73.78;100783.40;105244;1276;96178;-78
2022/07/09 07:02:02;;;;;;;4.90;2.00;;;;;;;16.75;73.77;100783.76;105189;1276;108634;-77
2022/07/09 07:04:30;;;;;;;4.90;1.90;;;;;;;16.78;73.82;100778.06;104539;1277;140379;-78
2022/07/09 07:06:58;;;;;;;4.20;1.80;;;;;;;16.85;73.68;100780.78;104647;1277;109271;-77
2022/07/09 07:09:26;;;;;;;5.80;2.30;;;;;;;16.94;73.43;100775.75;104533;1277;141460;-77
2022/07/09 07:11:54;;;;;;;5.30;2.10;;;;;;;17.04;73.63;100775.83;104651;1277;95226;-81
2022/07/09 07:14:22;;;;;;;7.60;1.90;;;;;;;17.15;73.33;100773.88;104682;1276;109236;-79
2022/07/09 07:16:50;;;;;;;3.70;1.30;;;;;;;17.29;73.28;100774.77;105131;1277;141202;-79
2022/07/09 07:19:20;;;;;;;6.60;1.80;;;;;;;17.43;72.35;100767.49;105408;1277;109281;-81
2022/07/09 07:21:49;;;;;;;5.40;1.80;;;;;;;17.53;72.11;100765.53;105169;1277;138821;-82
2022/07/09 07:24:17;;;;;;;5.40;1.70;;;;;;;17.65;71.76;100767.27;105302;1277;95237;-80
2022/07/09 07:26:45;;;;;;;5.60;1.80;;;;;;;17.72;71.20;100765.86;105259;1277;110336;-81
2022/07/09 07:29:12;;;;;;;4.60;1.30;;;;;;;17.83;70.72;100763.67;105543;1277;99716;-81
2022/07/09 07:31:40;;;;;;;4.70;1.50;;;;;;;17.95;70.09;100764.75;105192;1276;109300;-80
2022/07/09 07:34:08;;;;;;;9.00;3.20;;;;;;;17.99;70.08;100761.13;105186;1277;140261;-81
2022/07/09 07:36:36;;;;;;;5.10;1.60;;;;;;;18.10;70.56;100757.86;105191;1277;95163;-82
2022/07/09 07:39:04;;;;;;;5.40;1.60;;;;;;;18.16;68.97;100756.28;105086;1277;141221;-80
2022/07/09 07:41:32;;;;;;;4.20;1.30;;;;;;;18.20;68.18;100754.65;105259;1276;100480;-82
2022/07/09 07:44:00;;;;;;;4.40;1.50;;;;;;;18.23;67.49;100752.54;105264;1277;109307;-81
2022/07/09 07:46:27;;;;;;;5.20;1.50;;;;;;;18.28;67.97;100751.92;105153;1277;139897;-82
2022/07/09 07:48:55;;;;;;;4.70;1.60;;;;;;;18.36;69.15;100751.28;105385;1276;95176;-82
2022/07/09 07:51:24;;;;;;;4.00;1.60;;;;;;;18.49;68.72;100746.45;105230;1277;138572;-82
2022/07/09 07:53:52;;;;;;;5.40;1.50;;;;;;;18.55;68.87;100741.48;105243;1276;98899;-82
2022/07/09 07:56:20;;;;;;;4.00;1.60;;;;;;;18.54;67.67;100743.88;105579;1276;108269;-83
2022/07/09 07:58:48;;;;;;;4.10;1.40;;;;;;;18.50;66.95;100744.97;105175;1277;139826;-81
2022/07/09 08:01:16;;;;;;;3.40;0.90;;;;;;;18.51;65.83;100744.75;105495;1276;95143;-81
2022/07/09 08:03:43;;;;;;;3.60;1.00;;;;;;;18.55;64.50;100740.04;105727;1274;140510;-81
2022/07/09 08:06:12;;;;;;;4.90;1.00;;;;;;;18.66;64.57;100740.01;105821;1276;99201;-82
2022/07/09 08:08:39;;;;;;;4.20;0.90;;;;;;;18.80;63.45;100734.89;105756;1276;109326;-82
2022/07/09 08:11:07;;;;;;;4.90;0.90;;;;;;;18.80;64.17;100736.68;105779;1276;140938;-82
2022/07/09 08:13:35;;;;;;;3.70;1.00;;;;;;;18.86;63.77;100732.02;105875;1276;95544;-81
2022/07/09 08:16:03;;;;;;;4.30;0.90;;;;;;;18.90;63.25;100728.77;105658;1277;140265;-81
2022/07/09 08:18:31;;;;;;;3.60;1.00;;;;;;;18.99;62.84;100729.39;105641;1277;99798;-83
2022/07/09 08:21:00;;;;;;;5.50;1.20;;;;;;;19.07;63.09;100726.76;105559;1276;139871;-82
2022/07/09 08:23:28;;;;;;;4.40;0.80;;;;;;;19.06;62.98;100728.08;105678;1276;95207;-84
2022/07/09 08:25:55;;;;;;;5.50;2.00;;;;;;;19.04;62.58;100726.20;105454;1277;95150;-82
2022/07/09 08:28:24;;;;;;;4.00;0.90;;;;;;;19.08;62.11;100725.65;105686;1277;139374;-82
2022/07/09 08:30:52;;;;;;;3.90;1.00;;;;;;;19.17;62.24;100720.43;105733;1277;99492;-82
2022/07/09 08:33:20;;;;;;;3.50;1.10;;;;;;;19.37;62.28;100713.38;105792;1276;140060;-83
2022/07/09 08:35:48;;;;;;;3.50;0.80;;;;;;;19.48;62.16;100719.57;105546;1276;95219;-81
2022/07/09 08:38:16;;;;;;;4.10;0.90;;;;;;;19.50;62.06;100715.09;105464;1276;95220;-81
2022/07/09 08:40:47;;;;;;;3.40;0.80;;;;;;;19.69;60.20;100714.71;105139;1277;138612;-81
2022/07/09 08:43:16;;;;;;;4.60;0.80;;;;;;;19.85;58.72;100711.45;105477;1276;98820;-80
2022/07/09 08:45:45;;;;;;;5.00;0.90;;;;;;;19.95;58.18;100709.42;105117;1276;139691;-82
2022/07/09 08:48:13;;;;;;;4.80;0.80;;;;;;;19.87;57.54;100700.90;105438;1276;95192;-81
2022/07/09 08:50:41;;;;;;;3.70;1.00;;;;;;;19.98;58.72;100700.39;105047;1276;95144;-80
2022/07/09 08:53:11;;;;;;;5.40;1.10;;;;;;;20.14;57.77;100698.52;105279;1276;138829;-82
2022/07/09 08:55:40;;;;;;;3.00;0.80;;;;;;;20.30;57.29;100695.24;105290;1277;100527;-80
2022/07/09 08:58:13;;;;;;;2.90;0.80;;;;;;;20.43;56.18;100690.96;105329;1277;138622;-82
2022/07/09 09:00:41;;;;;;;4.90;1.10;;;;;;;20.56;56.51;100691.60;105394;1276;95309;-81
2022/07/09 09:03:09;;;;;;;2.90;1.00;;;;;;;20.55;55.96;100689.83;105229;1276;139824;-81
2022/07/09 09:05:37;;;;;;;5.00;0.90;;;;;;;20.69;56.40;100690.77;105171;1276;110303;-80
2022/07/09 09:08:23;;;;;;;4.30;1.00;;;;;;;21.02;56.45;100686.33;105525;1277;96914;-80
2022/07/09 09:10:51;;;;;;;4.60;1.30;;;;;;;21.25;55.00;100683.05;105316;1277;139888;-79
2022/07/09 09:13:19;;;;;;;4.40;0.90;;;;;;;21.27;53.60;100681.23;105429;1277;95223;-81
2022/07/09 09:15:47;;;;;;;3.60;1.00;;;;;;;21.31;50.96;100683.02;105356;1276;138258;-81
2022/07/09 09:18:15;;;;;;;4.60;1.00;;;;;;;21.30;52.28;100677.44;105477;1277;109019;-78
2022/07/09 09:20:46;;;;;;;3.10;1.10;;;;;;;21.10;52.42;100673.02;105270;1276;99611;-79
2022/07/09 09:23:17;;;;;;;3.90;1.10;;;;;;;20.93;53.09;100674.13;105218;1277;109793;-80
2022/07/09 09:25:44;;;;;;;3.30;0.80;;;;;;;20.73;53.97;100669.84;105448;1276;95199;-80
2022/07/09 09:28:15;;;;;;;3.70;0.80;;;;;;;20.55;54.54;100673.83;105405;1276;139119;-81
2022/07/09 09:30:43;;;;;;;5.80;1.20;;;;;;;20.37;54.80;100670.81;105540;1277;110330;-82
2022/07/09 09:33:15;;;;;;;3.20;1.00;;;;;;;20.43;55.42;100669.84;105648;1276;138491;-81
2022/07/09 09:35:44;;;;;;;4.20;1.00;;;;;;;20.38;54.95;100675.25;105925;1277;109250;-80
2022/07/09 09:38:12;;;;;;;3.30;0.90;;;;;;;20.29;55.67;100673.27;105948;1276;95208;-82
2022/07/09 09:40:46;;;;;;;3.40;1.10;;;;;;;20.30;54.14;100669.27;105721;1277;139786;-80
2022/07/09 09:43:22;;;;;;;4.30;1.20;;;;;;;20.21;53.87;100670.52;105696;1276;107351;-77
2022/07/09 09:45:55;;;;;;;4.60;0.90;;;;;;;20.11;54.64;100662.86;105416;1277;139158;-81
2022/07/09 09:48:23;;;;;;;4.60;1.00;;;;;;;20.23;54.56;100662.10;105868;1277;108976;-80
2022/07/09 09:50:55;;;;;;;3.30;1.00;;;;;;;20.91;52.61;100659.23;105825;1276;139872;-82
2022/07/09 09:53:23;;;;;;;7.80;3.20;;;;;;;21.42;51.85;100660.79;105861;1277;95182;-82
2022/07/09 09:55:51;;;;;;;4.90;1.40;;;;;;;22.24;50.49;100652.57;105683;1276;109545;-81
2022/07/09 09:58:24;;;;;;;5.00;1.20;;;;;;;23.38;49.41;100642.64;105322;1277;139162;-79
2022/07/09 10:00:52;;;;;;;5.20;1.50;;;;;;;24.65;47.26;100634.86;105308;1277;110334;-79
2022/07/09 10:03:20;;;;;;;5.40;1.30;;;;;;;25.65;44.99;100636.95;105297;1277;141270;-80
2022/07/09 10:05:51;;;;;;;4.60;1.30;;;;;;;25.97;42.64;100623.67;105352;1276;95176;-78
2022/07/09 10:08:18;;;;;;;4.50;1.30;;;;;;;26.24;41.46;100616.52;105352;1276;108709;-82
2022/07/09 10:10:52;;;;;;;6.20;1.30;;;;;;;25.98;41.37;100618.77;105064;1277;140203;-82
2022/07/09 10:13:21;;;;;;;5.80;1.70;;;;;;;26.02;41.24;100616.27;105255;1277;109855;-80
2022/07/09 10:15:50;;;;;;;5.00;1.10;;;;;;;26.99;39.37;100610.55;105155;1276;139957;-80
2022/07/09 10:18:18;;;;;;;5.20;1.20;;;;;;;27.87;36.27;100610.40;105223;1277;95233;-77
2022/07/09 10:20:46;;;;;;;3.80;1.00;;;;;;;28.55;34.13;100609.59;105213;1277;138775;-82
2022/07/09 10:23:24;;;;;;;6.20;1.80;;;;;;;29.00;33.40;100608.46;105397;1277;100967;-80
2022/07/09 10:25:55;;;;;;;4.90;1.40;;;;;;;29.56;32.87;100607.55;105129;1276;109491;-79
2022/07/09 10:28:25;;;;;;;4.60;1.30;;;;;;;29.77;32.10;100607.02;105136;1276;139760;-80
2022/07/09 10:30:53;;;;;;;4.80;1.10;;;;;;;30.04;32.00;100608.55;105168;1276;95103;-78
2022/07/09 10:33:50;;;;;;;4.30;1.20;;;;;;;30.63;31.45;100601.69;105082;1274;140052;-80
2022/07/09 10:36:18;;;;;;;5.30;0.90;;;;;;;30.87;30.24;100601.95;104589;1277;99435;-78
2022/07/09 10:38:56;;;;;;;6.10;1.20;;;;;;;30.63;31.34;100598.21;105306;1276;141122;-81
2022/07/09 10:41:24;;;;;;;4.60;1.10;;;;;;;30.97;31.40;100597.23;105279;1277;95200;-78
2022/07/09 10:43:53;;;;;;;4.80;1.10;;;;;;;30.69;30.41;100593.29;104872;1276;95123;-79
2022/07/09 10:46:21;;;;;;;4.60;1.00;;;;;;;30.94;29.62;100590.97;104606;1276;140061;-79
2022/07/09 10:48:49;;;;;;;4.10;0.90;;;;;;;30.96;28.69;100590.49;105266;1277;100082;-79
2022/07/09 10:51:40;;;;;;;5.10;1.10;;;;;;;30.68;29.11;100592.31;105087;1277;139153;-77
2022/07/09 10:54:16;;;;;;;4.30;1.00;;;;;;;30.73;29.78;100592.12;105470;1277;95160;-80
2022/07/09 10:56:45;;;;;;;4.40;1.00;;;;;;;30.93;30.20;100589.18;105531;1277;95233;-79
2022/07/09 10:59:17;;;;;;;3.50;0.90;;;;;;;31.21;29.74;100588.86;105571;1276;110482;-80
2022/07/09 11:01:45;;;;;;;4.00;1.00;;;;;;;31.07;28.81;100585.86;105370;1276;98511;-78
2022/07/09 11:04:31;;;;;;;4.20;1.00;;;;;;;30.71;28.73;100590.47;104941;1277;139554;-81
2022/07/09 11:06:59;;;;;;;4.50;0.90;;;;;;;30.20;29.25;100590.07;105405;1277;95160;-79
2022/07/09 11:09:30;;;;;;;3.10;0.80;;;;;;;29.47;30.01;100594.23;105176;1276;138171;-80
2022/07/09 11:12:00;;;;;;;3.70;1.00;;;;;;;28.98;31.77;100594.04;105132;1278;110246;-79
2022/07/09 11:14:29;;;;;;;4.20;0.90;;;;;;;28.43;30.90;100588.02;105299;1277;100532;-80
2022/07/09 11:17:00;;;;;;;4.10;0.90;;;;;;;27.79;31.65;100589.81;105353;1277;140791;-80
2022/07/09 11:19:30;;;;;;;4.10;1.00;;;;;;;27.37;32.00;100590.66;105492;1277;95036;-79